createdAt,value
2023-01-29T00:00:13.641Z,102907.91
2023-01-29T00:02:42.305Z,102911.38
2023-01-29T00:05:26.438Z,102905.63
2023-01-29T00:07:56.798Z,102915.56
2023-01-29T00:10:26.252Z,102918.53
2023-01-29T00:12:55.131Z,102911.91
2023-01-29T00:15:23.781Z,102905.28
2023-01-29T00:17:52.341Z,102908.25
2023-01-29T00:20:20.734Z,102907.53
2023-01-29T00:22:49.503Z,102899.38
2023-01-29T00:25:17.899Z,102903.38
2023-01-29T00:27:46.424Z,102897.13
2023-01-29T00:30:19.230Z,102889.81
2023-01-29T00:32:48.141Z,102883.25
2023-01-29T00:35:16.671Z,102887.34
2023-01-29T00:37:45.212Z,102893.63
2023-01-29T00:40:13.781Z,102892.56
2023-01-29T00:43:03.029Z,102890.81
2023-01-29T00:45:31.498Z,102887.25
2023-01-29T00:47:59.985Z,102893.00
2023-01-29T00:50:28.565Z,102870.69
2023-01-29T00:52:57.126Z,102868.97
2023-01-29T00:55:25.552Z,102867.22
2023-01-29T00:57:54.042Z,102857.84
2023-01-29T01:00:22.794Z,102859.25
2023-01-29T01:03:06.098Z,102849.09
2023-01-29T01:05:36.691Z,102839.31
2023-01-29T01:08:25.381Z,102847.84
2023-01-29T01:11:02.682Z,102845.59
2023-01-29T01:13:34.522Z,102843.53
2023-01-29T01:16:09.994Z,102835.66
2023-01-29T01:18:38.876Z,102839.19
2023-01-29T01:21:07.470Z,102846.50
2023-01-29T01:23:35.939Z,102844.75
2023-01-29T01:26:08.956Z,102845.00
2023-01-29T01:28:37.498Z,102843.53
2023-01-29T01:31:11.226Z,102842.44
2023-01-29T01:33:40.337Z,102839.19
2023-01-29T01:36:13.967Z,102838.63
2023-01-29T01:38:45.189Z,102849.03
2023-01-29T01:41:19.091Z,102853.94
2023-01-29T01:43:55.596Z,102855.22
2023-01-29T01:46:25.327Z,102861.97
2023-01-29T01:48:59.044Z,102862.28
2023-01-29T01:51:30.676Z,102865.47
2023-01-29T01:54:14.098Z,102855.81
2023-01-29T01:56:48.722Z,102847.78
2023-01-29T01:59:18.963Z,102862.03
2023-01-29T02:01:50.679Z,102847.22
2023-01-29T02:04:41.825Z,102854.22
2023-01-29T02:07:32.695Z,102857.25
2023-01-29T02:10:20.408Z,102859.00
2023-01-29T02:12:48.951Z,102858.72
2023-01-29T02:15:17.407Z,102855.28
2023-01-29T02:17:48.334Z,102856.38
2023-01-29T02:20:27.736Z,102867.41
2023-01-29T02:23:27.269Z,102859.19
2023-01-29T02:26:12.477Z,102860.31
2023-01-29T02:28:49.101Z,102864.28
2023-01-29T02:31:39.167Z,102869.13
2023-01-29T02:34:28.699Z,102871.78
2023-01-29T02:37:09.374Z,102874.28
2023-01-29T02:40:01.694Z,102876.16
2023-01-29T02:42:53.972Z,102859.06
2023-01-29T02:45:38.899Z,102865.28
2023-01-29T02:48:11.671Z,102865.47
2023-01-29T02:50:58.914Z,102855.63
2023-01-29T02:53:35.844Z,102861.00
2023-01-29T02:56:15.889Z,102854.47
2023-01-29T02:58:50.961Z,102853.81
2023-01-29T03:01:30.342Z,102855.47
2023-01-29T03:04:04.066Z,102858.47
2023-01-29T03:06:38.373Z,102849.56
2023-01-29T03:09:19.718Z,102850.00
2023-01-29T03:11:55.061Z,102856.50
2023-01-29T03:15:00.458Z,102850.63
2023-01-29T03:17:38.014Z,102855.34
2023-01-29T03:20:13.477Z,102849.84
2023-01-29T03:22:48.529Z,102847.06
2023-01-29T03:25:39.066Z,102840.75
2023-01-29T03:28:30.794Z,102850.25
2023-01-29T03:31:23.276Z,102843.41
2023-01-29T03:33:54.669Z,102837.38
2023-01-29T03:36:37.893Z,102842.03
2023-01-29T03:39:09.462Z,102839.19
2023-01-29T03:41:50.359Z,102833.00
2023-01-29T03:44:40.297Z,102835.97
2023-01-29T03:47:32.743Z,102843.59
2023-01-29T03:50:07.308Z,102845.06
2023-01-29T03:52:44.922Z,102842.81
2023-01-29T03:55:18.605Z,102832.97
2023-01-29T03:58:04.040Z,102826.34
2023-01-29T04:00:41.470Z,102835.22
2023-01-29T04:03:20.474Z,102827.28
2023-01-29T04:06:05.516Z,102829.41
2023-01-29T04:08:39.150Z,102830.59
2023-01-29T04:11:14.833Z,102828.97
2023-01-29T04:13:43.780Z,102828.25
2023-01-29T04:16:20.589Z,102818.16
2023-01-29T04:18:49.712Z,102819.38
2023-01-29T04:21:19.152Z,102815.34
2023-01-29T04:23:47.547Z,102811.19
2023-01-29T04:26:32.554Z,102811.25
2023-01-29T04:29:26.165Z,102809.38
2023-01-29T04:32:01.129Z,102814.06
2023-01-29T04:34:40.869Z,102811.97
2023-01-29T04:37:17.472Z,102814.34
2023-01-29T04:40:08.674Z,102806.09
2023-01-29T04:42:47.187Z,102809.78
2023-01-29T04:45:28.599Z,102802.25
2023-01-29T04:48:25.951Z,102798.41
2023-01-29T04:50:54.380Z,102793.91
2023-01-29T04:53:35.901Z,102789.38
2023-01-29T04:56:34.334Z,102784.56
2023-01-29T04:59:09.342Z,102777.97
2023-01-29T05:01:39.085Z,102778.19
2023-01-29T05:04:14.209Z,102774.66
2023-01-29T05:06:44.899Z,102771.50
2023-01-29T05:09:16.128Z,102768.63
2023-01-29T05:11:47.393Z,102764.97
2023-01-29T05:14:18.465Z,102753.84
2023-01-29T05:16:53.255Z,102749.88
2023-01-29T05:19:21.855Z,102746.28
2023-01-29T05:21:50.525Z,102760.50
2023-01-29T05:24:20.493Z,102760.59
2023-01-29T05:27:09.926Z,102757.72
2023-01-29T05:29:41.619Z,102760.00
2023-01-29T05:32:09.987Z,102756.50
2023-01-29T05:34:38.389Z,102752.56
2023-01-29T05:37:07.252Z,102746.78
2023-01-29T05:39:35.650Z,102741.56
2023-01-29T05:42:04.575Z,102738.91
2023-01-29T05:44:32.997Z,102743.59
2023-01-29T05:47:02.796Z,102749.22
2023-01-29T05:49:31.227Z,102759.63
2023-01-29T05:51:59.648Z,102755.78
2023-01-29T05:54:28.231Z,102766.41
2023-01-29T05:56:56.680Z,102751.88
2023-01-29T05:59:25.100Z,102763.38
2023-01-29T06:01:53.619Z,102755.47
2023-01-29T06:04:22.028Z,102766.09
2023-01-29T06:06:50.584Z,102764.88
2023-01-29T06:09:19.023Z,102767.13
2023-01-29T06:11:47.489Z,102762.03
2023-01-29T06:14:15.925Z,102769.06
2023-01-29T06:16:44.320Z,102771.41
2023-01-29T06:19:12.682Z,102768.91
2023-01-29T06:21:41.102Z,102771.31
2023-01-29T06:24:09.543Z,102773.28
2023-01-29T06:26:37.970Z,102785.00
2023-01-29T06:29:06.333Z,102785.16
2023-01-29T06:31:39.304Z,102802.84
2023-01-29T06:34:08.519Z,102785.50
2023-01-29T06:36:37.057Z,102769.63
2023-01-29T06:39:05.482Z,102755.38
2023-01-29T06:41:34.605Z,102745.13
2023-01-29T06:44:03.040Z,102743.50
2023-01-29T06:46:31.524Z,102737.72
2023-01-29T06:49:00.766Z,102748.06
2023-01-29T06:51:29.221Z,102752.72
2023-01-29T06:53:57.987Z,102759.78
2023-01-29T06:56:26.424Z,102757.16
2023-01-29T06:58:54.974Z,102749.75
2023-01-29T07:01:35.176Z,102740.59
2023-01-29T07:04:04.877Z,102729.50
2023-01-29T07:06:33.481Z,102740.38
2023-01-29T07:09:03.524Z,102744.09
2023-01-29T07:11:34.052Z,102747.31
2023-01-29T07:14:02.486Z,102741.25
2023-01-29T07:16:31.191Z,102731.38
2023-01-29T07:18:59.599Z,102735.44
2023-01-29T07:21:28.152Z,102736.59
2023-01-29T07:23:57.161Z,102741.41
2023-01-29T07:26:25.713Z,102734.41
2023-01-29T07:28:54.169Z,102740.63
2023-01-29T07:31:22.937Z,102749.34
2023-01-29T07:33:51.450Z,102743.63
2023-01-29T07:36:19.917Z,102745.97
2023-01-29T07:38:51.562Z,102752.41
2023-01-29T07:41:20.101Z,102748.34
2023-01-29T07:43:48.752Z,102735.88
2023-01-29T07:46:17.223Z,102731.13
2023-01-29T07:48:45.721Z,102733.88
2023-01-29T07:51:14.134Z,102721.94
2023-01-29T07:53:44.375Z,102725.06
2023-01-29T07:56:12.815Z,102731.94
2023-01-29T07:58:41.242Z,102740.69
2023-01-29T08:01:09.711Z,102737.34
2023-01-29T08:03:38.195Z,102742.34
2023-01-29T08:06:06.849Z,102727.72
2023-01-29T08:08:35.391Z,102724.59
2023-01-29T08:11:05.530Z,102727.66
2023-01-29T08:13:33.913Z,102727.19
2023-01-29T08:16:03.557Z,102725.81
2023-01-29T08:18:31.999Z,102726.84
2023-01-29T08:21:01.381Z,102718.94
2023-01-29T08:23:29.801Z,102716.19
2023-01-29T08:25:58.350Z,102728.72
2023-01-29T08:28:26.943Z,102732.19
2023-01-29T08:30:55.471Z,102730.78
2023-01-29T08:33:37.950Z,102721.69
2023-01-29T08:36:08.676Z,102728.88
2023-01-29T08:38:37.187Z,102716.06
2023-01-29T08:41:06.305Z,102711.00
2023-01-29T08:43:36.999Z,102716.06
2023-01-29T08:46:06.644Z,102708.47
2023-01-29T08:48:36.143Z,102712.81
2023-01-29T08:51:05.292Z,102705.00
2023-01-29T08:53:33.814Z,102705.34
2023-01-29T08:56:02.394Z,102696.44
2023-01-29T08:58:30.858Z,102698.16
2023-01-29T09:01:06.902Z,102697.69
2023-01-29T09:03:35.715Z,102697.69
2023-01-29T09:06:04.332Z,102701.75
2023-01-29T09:08:32.844Z,102706.44
2023-01-29T09:11:01.268Z,102707.28
2023-01-29T09:13:29.793Z,102709.44
2023-01-29T09:16:03.526Z,102709.19
2023-01-29T09:18:32.904Z,102698.72
2023-01-29T09:21:02.620Z,102696.72
2023-01-29T09:23:32.045Z,102691.63
2023-01-29T09:26:00.620Z,102685.50
2023-01-29T09:28:29.113Z,102689.94
2023-01-29T09:31:01.454Z,102684.31
2023-01-29T09:33:31.041Z,102680.88
2023-01-29T09:35:59.535Z,102675.91
2023-01-29T09:38:28.250Z,102682.59
2023-01-29T09:41:22.857Z,102685.50
2023-01-29T09:44:02.486Z,102679.00
2023-01-29T09:46:43.384Z,102683.25
2023-01-29T09:49:37.752Z,102674.34
2023-01-29T09:52:14.978Z,102681.56
2023-01-29T09:55:05.218Z,102678.47
2023-01-29T09:57:44.277Z,102677.50
2023-01-29T10:00:25.072Z,102682.59
2023-01-29T10:03:15.497Z,102671.84
2023-01-29T10:06:21.190Z,102687.22
2023-01-29T10:09:37.358Z,102681.72
2023-01-29T10:12:36.401Z,102680.97
2023-01-29T10:15:32.485Z,102691.19
2023-01-29T10:18:39.798Z,102689.19
2023-01-29T10:21:30.079Z,102698.72
2023-01-29T10:24:17.272Z,102686.69
2023-01-29T10:26:45.848Z,102687.38
2023-01-29T10:29:19.499Z,102686.13
2023-01-29T10:31:53.853Z,102685.84
2023-01-29T10:34:42.472Z,102677.06
2023-01-29T10:37:31.254Z,102686.25
2023-01-29T10:40:00.200Z,102679.81
2023-01-29T10:42:31.506Z,102679.28
2023-01-29T10:45:16.917Z,102674.50
2023-01-29T10:48:10.338Z,102682.56
2023-01-29T10:50:49.068Z,102665.34
2023-01-29T10:53:26.565Z,102670.13
2023-01-29T10:56:23.164Z,102663.25
2023-01-29T10:58:57.386Z,102660.41
2023-01-29T11:01:26.761Z,102660.88
2023-01-29T11:03:59.375Z,102662.19
2023-01-29T11:06:31.142Z,102651.50
2023-01-29T11:09:09.729Z,102655.69
2023-01-29T11:11:47.465Z,102643.28
2023-01-29T11:14:26.896Z,102643.31
2023-01-29T11:16:56.208Z,102635.88
2023-01-29T11:19:38.301Z,102627.06
2023-01-29T11:22:16.919Z,102629.63
2023-01-29T11:24:45.818Z,102623.63
2023-01-29T11:27:26.479Z,102620.97
2023-01-29T11:29:55.782Z,102606.28
2023-01-29T11:32:33.631Z,102606.25
2023-01-29T11:35:05.015Z,102598.28
2023-01-29T11:37:39.197Z,102596.78
2023-01-29T11:40:32.601Z,102587.63
2023-01-29T11:43:33.972Z,102574.00
2023-01-29T11:46:05.740Z,102569.25
2023-01-29T11:48:40.806Z,102563.91
2023-01-29T11:51:12.523Z,102558.59
2023-01-29T11:53:44.929Z,102551.47
2023-01-29T11:56:19.302Z,102548.22
2023-01-29T11:58:49.788Z,102540.50
2023-01-29T12:01:27.807Z,102540.91
2023-01-29T12:03:56.326Z,102517.72
2023-01-29T12:06:33.169Z,102521.25
2023-01-29T12:09:08.970Z,102509.59
2023-01-29T12:11:37.733Z,102504.03
2023-01-29T12:14:26.517Z,102492.63
2023-01-29T12:17:19.935Z,102485.84
2023-01-29T12:19:58.950Z,102475.19
2023-01-29T12:22:42.813Z,102481.91
2023-01-29T12:25:44.811Z,102476.41
2023-01-29T12:28:35.608Z,102479.38
2023-01-29T12:31:38.432Z,102469.41
2023-01-29T12:34:22.679Z,102464.84
2023-01-29T12:37:34.161Z,102463.03
2023-01-29T12:40:02.979Z,102459.13
2023-01-29T12:42:32.217Z,102446.56
2023-01-29T12:45:09.007Z,102455.13
2023-01-29T12:47:50.120Z,102448.75
2023-01-29T12:50:27.913Z,102453.84
2023-01-29T12:53:11.147Z,102452.09
2023-01-29T12:55:47.897Z,102445.34
2023-01-29T12:58:21.980Z,102439.88
2023-01-29T13:00:54.408Z,102443.47
2023-01-29T13:03:33.294Z,102431.84
2023-01-29T13:06:15.869Z,102428.88
2023-01-29T13:08:54.733Z,102438.09
2023-01-29T13:11:34.139Z,102426.06
2023-01-29T13:14:20.528Z,102419.47
2023-01-29T13:16:54.503Z,102417.00
2023-01-29T13:19:29.459Z,102413.34
2023-01-29T13:22:02.233Z,102418.63
2023-01-29T13:24:40.620Z,102410.22
2023-01-29T13:27:21.727Z,102404.84
2023-01-29T13:29:50.436Z,102404.75
2023-01-29T13:32:26.136Z,102392.91
2023-01-29T13:34:58.933Z,102394.16
2023-01-29T13:37:36.583Z,102396.00
2023-01-29T13:40:07.678Z,102385.66
2023-01-29T13:42:47.149Z,102385.66
2023-01-29T13:45:25.133Z,102382.03
2023-01-29T13:47:54.237Z,102377.19
2023-01-29T13:50:39.887Z,102374.25
2023-01-29T13:53:18.175Z,102369.84
2023-01-29T13:55:46.788Z,102366.97
2023-01-29T13:58:43.580Z,102373.69
2023-01-29T14:01:11.983Z,102374.53
2023-01-29T14:04:02.248Z,102377.13
2023-01-29T14:06:38.812Z,102371.56
2023-01-29T14:09:39.295Z,102377.53
2023-01-29T14:12:22.986Z,102368.78
2023-01-29T14:15:04.196Z,102365.06
2023-01-29T14:17:32.886Z,102364.06
2023-01-29T14:20:16.540Z,102354.81
2023-01-29T14:22:55.527Z,102342.31
2023-01-29T14:25:30.048Z,102340.06
2023-01-29T14:28:01.358Z,102345.72
2023-01-29T14:30:35.014Z,102345.28
2023-01-29T14:33:05.572Z,102347.00
2023-01-29T14:35:34.632Z,102346.06
2023-01-29T14:38:06.469Z,102346.91
2023-01-29T14:40:37.260Z,102335.81
2023-01-29T14:43:19.998Z,102332.03
2023-01-29T14:45:49.491Z,102332.81
2023-01-29T14:48:48.732Z,102333.97
2023-01-29T14:51:18.184Z,102332.25
2023-01-29T14:54:01.247Z,102334.28
2023-01-29T14:56:36.498Z,102331.38
2023-01-29T14:59:16.437Z,102330.97
2023-01-29T15:01:57.860Z,102328.94
2023-01-29T15:04:29.864Z,102316.34
2023-01-29T15:07:24.146Z,102326.59
2023-01-29T15:10:21.583Z,102320.09
2023-01-29T15:13:00.523Z,102310.69
2023-01-29T15:15:31.928Z,102314.50
2023-01-29T15:18:05.496Z,102315.69
2023-01-29T15:20:39.990Z,102313.88
2023-01-29T15:23:28.339Z,102307.44
2023-01-29T15:26:18.154Z,102302.66
2023-01-29T15:29:03.105Z,102292.75
2023-01-29T15:31:35.112Z,102299.69
2023-01-29T15:34:07.149Z,102304.78
2023-01-29T15:36:37.038Z,102308.63
2023-01-29T15:39:17.107Z,102302.56
2023-01-29T15:41:46.394Z,102294.13
2023-01-29T15:44:18.658Z,102288.69
2023-01-29T15:46:53.321Z,102288.25
2023-01-29T15:49:35.004Z,102286.88
2023-01-29T15:52:15.457Z,102276.84
2023-01-29T15:54:44.549Z,102284.22
2023-01-29T15:57:30.697Z,102269.88
2023-01-29T15:59:59.088Z,102259.44
2023-01-29T16:02:40.061Z,102254.13
2023-01-29T16:05:20.545Z,102248.78
2023-01-29T16:07:51.277Z,102249.59
2023-01-29T16:10:26.419Z,102243.31
2023-01-29T16:12:55.754Z,102248.00
2023-01-29T16:16:10.857Z,102249.16
2023-01-29T16:18:54.215Z,102240.47
2023-01-29T16:21:41.396Z,102246.00
2023-01-29T16:24:13.916Z,102234.47
2023-01-29T16:26:45.286Z,102236.81
2023-01-29T16:29:28.854Z,102241.28
2023-01-29T16:32:01.833Z,102238.22
2023-01-29T16:34:41.641Z,102232.56
2023-01-29T16:37:21.897Z,102221.06
2023-01-29T16:39:52.814Z,102211.78
2023-01-29T16:42:23.027Z,102213.13
2023-01-29T16:45:01.846Z,102208.06
2023-01-29T16:47:35.983Z,102218.53
2023-01-29T16:50:23.452Z,102225.50
2023-01-29T16:53:02.362Z,102223.56
2023-01-29T16:55:39.118Z,102218.25
2023-01-29T16:58:20.137Z,102220.06
2023-01-29T17:00:55.039Z,102222.91
2023-01-29T17:03:26.701Z,102210.41
2023-01-29T17:05:55.223Z,102214.06
2023-01-29T17:08:34.314Z,102212.56
2023-01-29T17:11:03.127Z,102211.84
2023-01-29T17:13:42.708Z,102199.00
2023-01-29T17:16:26.720Z,102208.53
2023-01-29T17:18:55.646Z,102196.69
2023-01-29T17:21:24.515Z,102197.44
2023-01-29T17:23:53.650Z,102197.78
2023-01-29T17:26:22.989Z,102198.53
2023-01-29T17:28:51.817Z,102195.16
2023-01-29T17:31:20.403Z,102199.75
2023-01-29T17:33:49.005Z,102189.00
2023-01-29T17:36:18.089Z,102184.50
2023-01-29T17:38:47.060Z,102196.03
2023-01-29T17:41:25.937Z,102193.38
2023-01-29T17:43:54.402Z,102181.94
2023-01-29T17:46:22.952Z,102183.56
2023-01-29T17:48:52.387Z,102176.41
2023-01-29T17:51:22.443Z,102180.88
2023-01-29T17:53:52.197Z,102173.88
2023-01-29T17:56:29.434Z,102167.59
2023-01-29T17:58:58.009Z,102184.59
2023-01-29T18:01:26.519Z,102182.44
2023-01-29T18:03:54.964Z,102170.47
2023-01-29T18:06:28.868Z,102184.47
2023-01-29T18:08:57.602Z,102170.75
2023-01-29T18:11:26.462Z,102170.75
2023-01-29T18:13:56.147Z,102163.59
2023-01-29T18:16:25.650Z,102158.63
2023-01-29T18:18:54.288Z,102162.50
2023-01-29T18:21:22.853Z,102161.91
2023-01-29T18:23:51.478Z,102159.97
2023-01-29T18:26:19.905Z,102158.97
2023-01-29T18:28:49.795Z,102154.28
2023-01-29T18:31:18.522Z,102151.31
2023-01-29T18:33:47.453Z,102140.81
2023-01-29T18:36:15.939Z,102138.44
2023-01-29T18:38:44.402Z,102133.47
2023-01-29T18:41:12.915Z,102129.78
2023-01-29T18:43:41.936Z,102135.03
2023-01-29T18:46:10.928Z,102127.75
2023-01-29T18:48:41.675Z,102129.00
2023-01-29T18:51:10.950Z,102107.63
2023-01-29T18:53:39.401Z,102104.50
2023-01-29T18:56:09.274Z,102094.94
2023-01-29T18:58:37.903Z,102085.44
2023-01-29T19:01:10.105Z,102082.00
2023-01-29T19:03:40.652Z,102070.16
2023-01-29T19:06:11.258Z,102062.94
2023-01-29T19:08:40.978Z,102073.59
2023-01-29T19:11:09.699Z,102078.03
2023-01-29T19:13:38.376Z,102079.03
2023-01-29T19:16:09.226Z,102085.19
2023-01-29T19:18:38.734Z,102077.47
2023-01-29T19:21:12.980Z,102074.31
2023-01-29T19:23:43.052Z,102069.72
2023-01-29T19:26:11.972Z,102056.53
2023-01-29T19:28:41.331Z,102040.69
2023-01-29T19:31:09.833Z,102038.63
2023-01-29T19:33:39.311Z,102036.44
2023-01-29T19:36:08.109Z,102021.22
2023-01-29T19:38:38.836Z,102006.78
2023-01-29T19:41:07.628Z,102020.44
2023-01-29T19:43:38.307Z,102016.03
2023-01-29T19:46:07.422Z,102016.03
2023-01-29T19:48:36.505Z,102000.06
2023-01-29T19:51:10.875Z,102000.91
2023-01-29T19:53:43.926Z,101974.19
2023-01-29T19:56:18.118Z,101980.41
2023-01-29T19:58:47.261Z,101982.31
2023-01-29T20:01:18.403Z,101974.63
2023-01-29T20:03:50.153Z,101972.34
2023-01-29T20:06:22.475Z,101959.66
2023-01-29T20:08:50.888Z,101964.56
2023-01-29T20:11:21.820Z,101948.31
2023-01-29T20:13:52.062Z,101958.38
2023-01-29T20:16:21.411Z,101950.47
2023-01-29T20:18:50.469Z,101949.97
2023-01-29T20:21:21.802Z,101967.41
2023-01-29T20:23:51.115Z,101971.56
2023-01-29T20:26:21.370Z,101964.16
2023-01-29T20:28:50.029Z,101971.00
2023-01-29T20:31:18.530Z,101967.06
2023-01-29T20:33:46.938Z,101974.09
2023-01-29T20:36:15.381Z,101964.66
2023-01-29T20:38:43.875Z,101966.78
2023-01-29T20:41:17.391Z,101970.47
2023-01-29T20:43:47.070Z,101976.94
2023-01-29T20:46:15.647Z,101981.53
2023-01-29T20:48:44.105Z,101979.75
2023-01-29T20:51:17.611Z,101971.59
2023-01-29T20:53:47.865Z,101961.56
2023-01-29T20:56:16.832Z,101942.59
2023-01-29T20:58:46.786Z,101952.88
2023-01-29T21:01:18.393Z,101951.56
2023-01-29T21:03:48.567Z,101940.72
2023-01-29T21:06:17.018Z,101950.72
2023-01-29T21:08:45.436Z,101949.00
2023-01-29T21:11:13.896Z,101957.84
2023-01-29T21:13:43.913Z,101952.78
2023-01-29T21:16:13.100Z,101943.59
2023-01-29T21:18:41.530Z,101940.53
2023-01-29T21:21:10.791Z,101947.84
2023-01-29T21:23:39.193Z,101953.84
2023-01-29T21:26:08.060Z,101959.22
2023-01-29T21:28:36.520Z,101946.72
2023-01-29T21:31:07.243Z,101945.59
2023-01-29T21:33:37.005Z,101955.56
2023-01-29T21:36:06.054Z,101972.31
2023-01-29T21:38:34.475Z,101938.53
2023-01-29T21:41:05.850Z,101948.81
2023-01-29T21:43:34.550Z,101955.69
2023-01-29T21:46:05.935Z,101943.31
2023-01-29T21:48:34.447Z,101936.75
2023-01-29T21:51:02.848Z,101944.28
2023-01-29T21:53:31.336Z,101934.31
2023-01-29T21:56:01.820Z,101932.69
2023-01-29T21:58:30.730Z,101926.91
2023-01-29T22:01:36.127Z,101948.50
2023-01-29T22:03:47.840Z,101944.41
2023-01-29T22:06:16.394Z,101952.66
2023-01-29T22:08:44.851Z,101970.47
2023-01-29T22:11:13.756Z,101937.66
2023-01-29T22:13:42.643Z,101917.78
2023-01-29T22:16:11.235Z,101917.69
2023-01-29T22:18:39.759Z,101886.34
2023-01-29T22:21:08.252Z,101879.88
2023-01-29T22:23:36.707Z,101894.13
2023-01-29T22:26:06.568Z,101894.13
2023-01-29T22:28:35.161Z,101876.38
2023-01-29T22:31:04.724Z,101843.09
2023-01-29T22:33:33.936Z,101800.19
2023-01-29T22:36:02.768Z,101816.63
2023-01-29T22:38:31.231Z,101782.88
2023-01-29T22:41:00.837Z,101786.28
2023-01-29T22:43:29.456Z,101790.09
2023-01-29T22:45:57.920Z,101818.19
2023-01-29T22:48:26.914Z,101841.63
2023-01-29T22:51:10.150Z,101828.47
2023-01-29T22:53:53.422Z,101829.81
2023-01-29T22:56:28.194Z,101827.50
2023-01-29T22:58:59.367Z,101816.03
2023-01-29T23:01:30.700Z,101816.25
2023-01-29T23:03:59.216Z,101823.69
2023-01-29T23:06:27.664Z,101832.38
2023-01-29T23:08:56.107Z,101802.63
2023-01-29T23:11:24.558Z,101820.16
2023-01-29T23:13:54.526Z,101816.72
2023-01-29T23:16:27.726Z,101805.44
2023-01-29T23:18:56.995Z,101774.53
2023-01-29T23:21:26.221Z,101751.09
2023-01-29T23:23:58.235Z,101740.69
2023-01-29T23:26:46.477Z,101759.31
2023-01-29T23:29:15.069Z,101765.56
2023-01-29T23:31:43.652Z,101785.41
2023-01-29T23:34:12.263Z,101778.69
2023-01-29T23:36:40.882Z,101768.22
2023-01-29T23:39:09.667Z,101769.50
2023-01-29T23:41:38.218Z,101766.34
2023-01-29T23:44:06.949Z,101773.03
2023-01-29T23:46:35.437Z,101753.63
2023-01-29T23:49:03.929Z,101748.25
2023-01-29T23:51:32.758Z,101744.91
2023-01-29T23:54:01.145Z,101742.34
2023-01-29T23:56:29.635Z,101735.13
2023-01-29T23:58:58.562Z,101734.06
